createdAt,value
2023-04-20T00:01:49.833Z,10.29
2023-04-20T00:04:52.972Z,10.37
2023-04-20T00:07:55.389Z,10.37
2023-04-20T00:10:58.035Z,10.20
2023-04-20T00:14:00.502Z,10.24
2023-04-20T00:17:03.206Z,10.19
2023-04-20T00:20:06.525Z,10.05
2023-04-20T00:23:09.220Z,9.94
2023-04-20T00:26:13.640Z,10.14
2023-04-20T00:29:16.917Z,10.03
2023-04-20T00:32:19.409Z,10.08
2023-04-20T00:35:23.933Z,10.07
2023-04-20T00:38:27.903Z,10.01
2023-04-20T00:41:30.674Z,9.82
2023-04-20T00:44:35.357Z,9.95
2023-04-20T00:47:39.083Z,9.73
2023-04-20T00:50:41.765Z,9.85
2023-04-20T00:53:44.970Z,9.94
2023-04-20T00:56:47.645Z,9.90
2023-04-20T00:59:53.752Z,9.75
2023-04-20T01:02:57.719Z,9.84
2023-04-20T01:06:02.041Z,9.81
2023-04-20T01:09:04.506Z,9.79
2023-04-20T01:12:07.735Z,9.77
2023-04-20T01:15:10.699Z,9.63
2023-04-20T01:18:13.805Z,9.70
2023-04-20T01:21:18.717Z,9.75
2023-04-20T01:24:21.405Z,9.69
2023-04-20T01:27:23.796Z,9.63
2023-04-20T01:30:26.612Z,9.58
2023-04-20T01:33:29.012Z,9.56
2023-04-20T01:36:32.278Z,9.54
2023-04-20T01:39:40.302Z,9.65
2023-04-20T01:42:43.056Z,9.63
2023-04-20T01:45:45.768Z,9.64
2023-04-20T01:48:48.532Z,9.67
2023-04-20T01:51:50.847Z,9.60
2023-04-20T01:54:53.849Z,9.60
2023-04-20T01:57:56.210Z,9.49
2023-04-20T02:01:01.878Z,9.42
2023-04-20T02:04:04.803Z,9.43
2023-04-20T02:07:07.349Z,9.44
2023-04-20T02:10:13.386Z,9.37
2023-04-20T02:13:21.692Z,9.21
2023-04-20T02:16:24.987Z,9.35
2023-04-20T02:19:27.766Z,9.22
2023-04-20T02:22:30.051Z,9.26
2023-04-20T02:25:32.650Z,9.20
2023-04-20T02:28:34.990Z,9.23
2023-04-20T02:31:40.454Z,9.27
2023-04-20T02:34:42.816Z,9.35
2023-04-20T02:37:46.233Z,9.28
2023-04-20T02:40:48.543Z,9.39
2023-04-20T02:43:51.820Z,9.47
2023-04-20T02:46:54.445Z,9.56
2023-04-20T02:49:57.313Z,9.61
2023-04-20T02:52:59.937Z,9.55
2023-04-20T02:56:03.205Z,9.49
2023-04-20T02:59:06.765Z,9.38
2023-04-20T03:02:09.884Z,9.49
2023-04-20T03:05:13.369Z,9.50
2023-04-20T03:08:16.462Z,9.57
2023-04-20T03:11:20.625Z,9.39
2023-04-20T03:14:23.564Z,9.43
2023-04-20T03:17:25.971Z,9.44
2023-04-20T03:20:28.799Z,9.36
2023-04-20T03:23:31.192Z,9.42
2023-04-20T03:26:34.909Z,9.30
2023-04-20T03:29:39.084Z,9.39
2023-04-20T03:32:42.386Z,9.27
2023-04-20T03:35:44.921Z,9.34
2023-04-20T03:38:47.509Z,9.27
2023-04-20T03:41:49.890Z,9.32
2023-04-20T03:44:52.442Z,9.17
2023-04-20T03:47:54.810Z,9.22
2023-04-20T03:50:57.699Z,9.10
2023-04-20T03:54:00.378Z,9.18
2023-04-20T03:57:03.787Z,9.10
2023-04-20T04:00:06.778Z,9.13
2023-04-20T04:03:20.624Z,9.30
2023-04-20T04:06:23.459Z,9.34
2023-04-20T04:09:26.690Z,9.44
2023-04-20T04:12:29.321Z,9.41
2023-04-20T04:15:32.075Z,9.51
2023-04-20T04:18:35.295Z,9.56
2023-04-20T04:21:38.239Z,9.56
2023-04-20T04:24:41.762Z,9.57
2023-04-20T04:27:46.486Z,9.64
2023-04-20T04:30:49.419Z,9.70
2023-04-20T04:33:52.243Z,9.62
2023-04-20T04:36:57.960Z,9.65
2023-04-20T04:40:03.806Z,9.53
2023-04-20T04:43:10.190Z,9.52
2023-04-20T04:46:14.506Z,9.50
2023-04-20T04:49:17.605Z,9.60
2023-04-20T04:52:21.003Z,9.64
2023-04-20T04:55:23.618Z,9.65
2023-04-20T04:58:26.107Z,9.68
2023-04-20T05:01:28.767Z,9.69
2023-04-20T05:04:31.231Z,9.65
2023-04-20T05:07:34.175Z,9.51
2023-04-20T05:10:36.548Z,9.57
2023-04-20T05:13:39.382Z,9.62
2023-04-20T05:16:41.775Z,9.56
2023-04-20T05:19:44.446Z,9.60
2023-04-20T05:22:47.012Z,9.78
2023-04-20T05:25:49.726Z,9.86
2023-04-20T05:28:52.063Z,9.98
2023-04-20T05:31:54.804Z,10.10
2023-04-20T05:34:58.313Z,10.13
2023-04-20T05:38:02.652Z,10.27
2023-04-20T05:41:05.022Z,10.34
2023-04-20T05:44:07.777Z,10.37
2023-04-20T05:47:10.117Z,10.34
2023-04-20T05:50:12.705Z,10.39
2023-04-20T05:53:14.997Z,10.86
2023-04-20T05:56:18.561Z,11.45
2023-04-20T05:59:21.838Z,11.77
2023-04-20T06:02:24.723Z,12.13
2023-04-20T06:05:27.427Z,12.30
2023-04-20T06:08:29.769Z,12.49
2023-04-20T06:11:32.389Z,12.52
2023-04-20T06:14:34.753Z,12.75
2023-04-20T06:17:41.169Z,12.80
2023-04-20T06:20:44.392Z,13.00
2023-04-20T06:23:47.144Z,13.13
2023-04-20T06:26:49.472Z,13.24
2023-04-20T06:29:52.204Z,13.29
2023-04-20T06:32:54.648Z,13.32
2023-04-20T06:35:57.479Z,13.56
2023-04-20T06:38:59.754Z,13.82
2023-04-20T06:42:02.855Z,13.82
2023-04-20T06:45:08.550Z,14.16
2023-04-20T06:48:23.938Z,14.27
2023-04-20T06:51:33.476Z,14.30
2023-04-20T06:54:36.114Z,14.72
2023-04-20T06:57:43.726Z,14.69
2023-04-20T07:00:47.675Z,14.87
2023-04-20T07:03:50.556Z,15.06
2023-04-20T07:06:54.351Z,15.19
2023-04-20T07:09:56.953Z,15.12
2023-04-20T07:12:59.556Z,15.23
2023-04-20T07:16:02.730Z,15.30
2023-04-20T07:19:05.620Z,15.34
2023-04-20T07:22:08.002Z,15.31
2023-04-20T07:25:10.672Z,15.07
2023-04-20T07:28:13.031Z,15.03
2023-04-20T07:31:15.854Z,15.02
2023-04-20T07:34:18.479Z,15.29
2023-04-20T07:37:21.397Z,15.36
2023-04-20T07:40:23.830Z,15.41
2023-04-20T07:43:26.521Z,15.28
2023-04-20T07:46:29.128Z,15.56
2023-04-20T07:49:31.854Z,15.81
2023-04-20T07:52:34.541Z,15.82
2023-04-20T07:55:37.252Z,15.90
2023-04-20T07:58:40.791Z,15.87
2023-04-20T08:01:43.469Z,15.72
2023-04-20T08:04:46.600Z,15.92
2023-04-20T08:07:49.144Z,16.00
2023-04-20T08:10:51.791Z,16.00
2023-04-20T08:13:55.738Z,16.14
2023-04-20T08:16:59.784Z,16.10
2023-04-20T08:20:02.517Z,16.31
2023-04-20T08:23:05.242Z,16.39
2023-04-20T08:26:07.594Z,16.34
2023-04-20T08:29:10.840Z,16.34
2023-04-20T08:32:13.817Z,16.34
2023-04-20T08:35:16.624Z,16.47
2023-04-20T08:38:23.771Z,16.59
2023-04-20T08:41:33.557Z,16.83
2023-04-20T08:44:35.924Z,16.90
2023-04-20T08:47:39.321Z,16.98
2023-04-20T08:50:42.117Z,16.88
2023-04-20T08:53:44.982Z,17.10
2023-04-20T08:56:48.190Z,17.20
2023-04-20T08:59:50.903Z,17.27
2023-04-20T09:02:55.775Z,17.25
2023-04-20T09:05:58.989Z,17.29
2023-04-20T09:09:01.375Z,17.36
2023-04-20T09:12:07.133Z,17.73
2023-04-20T09:15:10.901Z,17.76
2023-04-20T09:18:14.945Z,17.89
2023-04-20T09:21:17.300Z,17.99
2023-04-20T09:24:21.965Z,18.09
2023-04-20T09:27:26.245Z,17.93
2023-04-20T09:30:43.707Z,17.66
2023-04-20T09:33:58.790Z,17.79
2023-04-20T09:37:01.555Z,17.96
2023-04-20T09:40:05.902Z,18.31
2023-04-20T09:43:19.382Z,18.62
2023-04-20T09:46:22.485Z,18.62
2023-04-20T09:49:26.280Z,18.68
2023-04-20T09:52:28.748Z,18.69
2023-04-20T09:55:34.449Z,18.82
2023-04-20T09:58:38.055Z,18.77
2023-04-20T10:01:40.959Z,18.77
2023-04-20T10:04:57.534Z,19.06
2023-04-20T10:08:01.216Z,19.40
2023-04-20T10:11:03.981Z,19.39
2023-04-20T10:14:20.731Z,19.53
2023-04-20T10:17:31.711Z,19.43
2023-04-20T10:20:34.178Z,19.35
2023-04-20T10:23:56.635Z,19.67
2023-04-20T10:26:59.555Z,19.63
2023-04-20T10:30:10.786Z,19.59
2023-04-20T10:33:13.501Z,19.79
2023-04-20T10:36:24.217Z,20.03
2023-04-20T10:39:27.684Z,20.16
2023-04-20T10:42:41.913Z,19.98
2023-04-20T10:45:44.318Z,20.09
2023-04-20T10:49:04.923Z,20.00
2023-04-20T10:52:07.538Z,20.01
2023-04-20T10:55:21.424Z,20.29
2023-04-20T10:58:25.014Z,20.54
2023-04-20T11:01:32.810Z,20.18
2023-04-20T11:04:37.261Z,20.48
2023-04-20T11:07:53.680Z,20.51
2023-04-20T11:10:56.052Z,20.65
2023-04-20T11:14:12.270Z,20.82
2023-04-20T11:17:14.749Z,20.68
2023-04-20T11:20:18.604Z,20.93
2023-04-20T11:23:22.756Z,21.21
2023-04-20T11:26:37.799Z,20.95
2023-04-20T11:29:40.312Z,20.26
2023-04-20T11:32:43.328Z,20.62
2023-04-20T11:35:45.933Z,20.77
2023-04-20T11:38:49.421Z,20.78
2023-04-20T11:41:52.687Z,20.97
2023-04-20T11:44:56.306Z,21.43
2023-04-20T11:48:00.033Z,21.18
2023-04-20T11:51:03.294Z,20.95
2023-04-20T11:54:05.775Z,21.15
2023-04-20T11:57:08.657Z,20.94
2023-04-20T12:00:12.597Z,21.41
2023-04-20T12:03:15.870Z,21.06
2023-04-20T12:06:18.658Z,21.76
2023-04-20T12:09:21.565Z,21.77
2023-04-20T12:12:26.644Z,21.60
2023-04-20T12:15:30.933Z,21.51
2023-04-20T12:18:34.079Z,21.57
2023-04-20T12:21:36.548Z,21.58
2023-04-20T12:24:39.235Z,21.66
2023-04-20T12:27:41.610Z,21.57
2023-04-20T12:30:44.261Z,21.37
2023-04-20T12:33:46.796Z,21.44
2023-04-20T12:36:49.453Z,21.64
2023-04-20T12:39:51.986Z,21.45
2023-04-20T12:42:54.689Z,21.42
2023-04-20T12:45:57.063Z,21.52
2023-04-20T12:48:59.740Z,21.53
2023-04-20T12:52:02.263Z,21.73
2023-04-20T12:55:05.656Z,21.68
2023-04-20T12:58:08.047Z,21.92
2023-04-20T13:01:10.901Z,21.94
2023-04-20T13:04:16.131Z,22.06
2023-04-20T13:07:19.137Z,21.94
2023-04-20T13:10:21.453Z,21.87
2023-04-20T13:13:24.191Z,21.84
2023-04-20T13:16:26.932Z,22.19
2023-04-20T13:19:31.146Z,22.30
2023-04-20T13:22:34.655Z,22.40
2023-04-20T13:25:38.827Z,22.47
2023-04-20T13:28:41.620Z,22.21
2023-04-20T13:31:44.532Z,22.20
2023-04-20T13:34:47.224Z,22.29
2023-04-20T13:37:51.622Z,22.20
2023-04-20T13:40:53.960Z,21.77
2023-04-20T13:43:58.126Z,21.51
2023-04-20T13:47:00.561Z,21.30
2023-04-20T13:50:03.682Z,21.46
2023-04-20T13:53:06.140Z,21.30
2023-04-20T13:56:10.792Z,21.45
2023-04-20T13:59:13.153Z,21.19
2023-04-20T14:02:16.136Z,20.93
2023-04-20T14:05:18.910Z,20.66
2023-04-20T14:08:23.358Z,20.97
2023-04-20T14:11:26.426Z,20.94
2023-04-20T14:14:28.858Z,21.26
2023-04-20T14:17:31.731Z,21.02
2023-04-20T14:20:34.995Z,21.47
2023-04-20T14:23:37.634Z,21.31
2023-04-20T14:26:41.086Z,21.31
2023-04-20T14:29:43.688Z,21.38
2023-04-20T14:33:00.196Z,21.37
2023-04-20T14:36:03.428Z,21.16
2023-04-20T14:39:05.736Z,21.33
2023-04-20T14:42:08.372Z,21.18
2023-04-20T14:45:11.611Z,21.08
2023-04-20T14:48:14.263Z,21.19
2023-04-20T14:51:17.476Z,21.12
2023-04-20T14:54:20.337Z,21.01
2023-04-20T14:57:23.074Z,20.93
2023-04-20T15:00:28.257Z,20.66
2023-04-20T15:03:31.082Z,20.74
2023-04-20T15:06:34.649Z,20.85
2023-04-20T15:09:37.051Z,20.79
2023-04-20T15:12:39.748Z,20.70
2023-04-20T15:18:52.047Z,20.69
2023-04-20T15:21:54.376Z,20.65
2023-04-20T15:24:57.064Z,20.67
2023-04-20T15:27:59.460Z,20.72
2023-04-20T15:31:02.153Z,20.74
2023-04-20T15:34:04.553Z,20.81
2023-04-20T15:37:07.210Z,20.63
2023-04-20T15:40:09.926Z,20.58
2023-04-20T15:43:12.558Z,20.68
2023-04-20T15:46:14.910Z,20.56
2023-04-20T15:49:20.631Z,20.40
2023-04-20T15:52:23.054Z,20.33
2023-04-20T15:55:25.759Z,20.39
2023-04-20T15:58:28.092Z,20.26
2023-04-20T16:01:30.906Z,20.22
2023-04-20T16:04:33.619Z,19.89
2023-04-20T16:07:36.085Z,19.62
2023-04-20T16:10:39.006Z,19.59
2023-04-20T16:13:41.366Z,19.11
2023-04-20T16:16:44.061Z,19.14
2023-04-20T16:19:46.527Z,19.07
2023-04-20T16:22:49.191Z,19.19
2023-04-20T16:25:51.590Z,19.15
2023-04-20T16:28:54.376Z,18.95
2023-04-20T16:31:56.724Z,18.88
2023-04-20T16:34:59.502Z,18.95
2023-04-20T16:38:01.899Z,18.75
2023-04-20T16:41:04.737Z,18.58
2023-04-20T16:44:07.060Z,18.70
2023-04-20T16:47:09.807Z,18.48
2023-04-20T16:50:14.333Z,18.52
2023-04-20T16:53:17.184Z,18.42
2023-04-20T16:56:19.571Z,18.36
2023-04-20T16:59:22.286Z,18.38
2023-04-20T17:02:25.805Z,18.41
2023-04-20T17:05:28.540Z,18.25
2023-04-20T17:08:31.076Z,18.25
2023-04-20T17:11:38.800Z,18.20
2023-04-20T17:14:42.293Z,18.20
2023-04-20T17:17:45.009Z,18.10
2023-04-20T17:20:48.274Z,18.10
2023-04-20T17:23:51.017Z,18.06
2023-04-20T17:26:54.037Z,17.95
2023-04-20T17:29:57.403Z,17.99
2023-04-20T17:33:00.762Z,17.83
2023-04-20T17:36:03.611Z,17.83
2023-04-20T17:39:06.355Z,17.90
2023-04-20T17:42:10.144Z,17.75
2023-04-20T17:45:12.513Z,17.74
2023-04-20T17:48:15.268Z,17.54
2023-04-20T17:51:17.762Z,17.48
2023-04-20T17:54:20.689Z,17.59
2023-04-20T17:57:23.367Z,17.49
2023-04-20T18:00:26.332Z,17.64
2023-04-20T18:03:30.014Z,17.66
2023-04-20T18:06:33.738Z,17.59
2023-04-20T18:09:36.406Z,17.73
2023-04-20T18:12:38.795Z,17.76
2023-04-20T18:15:41.617Z,17.76
2023-04-20T18:18:44.196Z,17.62
2023-04-20T18:21:46.907Z,17.67
2023-04-20T18:24:49.706Z,17.56
2023-04-20T18:27:52.456Z,17.48
2023-04-20T18:30:57.045Z,17.42
2023-04-20T18:34:01.102Z,17.40
2023-04-20T18:37:03.435Z,17.26
2023-04-20T18:40:07.238Z,17.21
2023-04-20T18:43:09.697Z,17.19
2023-04-20T18:46:12.511Z,17.14
2023-04-20T18:49:14.944Z,17.18
2023-04-20T18:52:19.333Z,17.12
2023-04-20T18:55:21.853Z,17.10
2023-04-20T18:58:24.809Z,17.08
2023-04-20T19:01:27.420Z,16.96
2023-04-20T19:04:30.262Z,16.95
2023-04-20T19:07:32.863Z,16.92
2023-04-20T19:10:36.398Z,16.94
2023-04-20T19:13:44.294Z,16.91
2023-04-20T19:16:47.180Z,16.91
2023-04-20T19:19:51.250Z,16.90
2023-04-20T19:22:53.908Z,16.90
2023-04-20T19:25:56.981Z,16.76
2023-04-20T19:29:00.180Z,16.85
2023-04-20T19:32:02.946Z,16.82
2023-04-20T19:35:05.768Z,16.66
2023-04-20T19:38:08.220Z,16.62
2023-04-20T19:41:10.887Z,16.49
2023-04-20T19:44:14.452Z,16.49
2023-04-20T19:47:17.394Z,16.42
2023-04-20T19:50:19.692Z,16.26
2023-04-20T19:53:22.566Z,16.21
2023-04-20T19:56:24.912Z,16.19
2023-04-20T19:59:28.581Z,16.09
2023-04-20T20:02:31.002Z,16.02
2023-04-20T20:05:34.547Z,15.92
2023-04-20T20:08:37.192Z,15.81
2023-04-20T20:11:42.396Z,15.74
2023-04-20T20:14:44.993Z,15.69
2023-04-20T20:17:47.809Z,15.67
2023-04-20T20:20:51.349Z,15.68
2023-04-20T20:23:54.031Z,15.66
2023-04-20T20:26:57.667Z,15.62
2023-04-20T20:30:00.304Z,15.54
2023-04-20T20:33:02.711Z,15.51
2023-04-20T20:36:08.762Z,15.45
2023-04-20T20:39:11.177Z,15.32
2023-04-20T20:42:15.713Z,15.31
2023-04-20T20:45:18.289Z,15.29
2023-04-20T20:48:21.149Z,15.31
2023-04-20T20:51:23.447Z,15.27
2023-04-20T20:54:26.032Z,15.24
2023-04-20T20:57:28.410Z,15.19
2023-04-20T21:00:31.737Z,15.06
2023-04-20T21:03:34.278Z,15.17
2023-04-20T21:06:37.036Z,15.09
2023-04-20T21:09:39.311Z,15.03
2023-04-20T21:12:41.973Z,15.10
2023-04-20T21:15:44.367Z,15.01
2023-04-20T21:18:47.079Z,15.11
2023-04-20T21:21:49.401Z,15.08
2023-04-20T21:24:52.072Z,14.95
2023-04-20T21:27:54.416Z,14.92
2023-04-20T21:30:56.999Z,14.96
2023-04-20T21:34:00.444Z,14.88
2023-04-20T21:37:05.854Z,14.84
2023-04-20T21:40:09.376Z,14.64
2023-04-20T21:43:12.285Z,14.68
2023-04-20T21:46:15.770Z,14.65
2023-04-20T21:49:18.782Z,14.51
2023-04-20T21:52:21.269Z,14.62
2023-04-20T21:55:23.884Z,14.49
2023-04-20T21:58:26.151Z,14.62
2023-04-20T22:01:31.613Z,14.44
2023-04-20T22:04:34.993Z,14.42
2023-04-20T22:07:38.607Z,14.43
2023-04-20T22:10:41.859Z,14.30
2023-04-20T22:13:45.326Z,14.25
2023-04-20T22:16:48.022Z,14.16
2023-04-20T22:19:50.424Z,14.22
2023-04-20T22:22:53.148Z,14.21
2023-04-20T22:25:55.732Z,14.08
2023-04-20T22:28:58.370Z,14.23
2023-04-20T22:32:00.824Z,14.09
2023-04-20T22:35:03.621Z,14.05
2023-04-20T22:38:05.940Z,14.11
2023-04-20T22:41:08.524Z,13.98
2023-04-20T22:44:10.828Z,13.98
2023-04-20T22:47:13.661Z,13.94
2023-04-20T22:50:16.335Z,13.92
2023-04-20T22:53:18.933Z,13.98
2023-04-20T22:56:21.256Z,13.86
2023-04-20T22:59:23.885Z,13.99
2023-04-20T23:02:27.020Z,13.94
2023-04-20T23:05:29.685Z,13.93
2023-04-20T23:08:33.519Z,13.84
2023-04-20T23:11:38.925Z,13.86
2023-04-20T23:14:43.794Z,13.79
2023-04-20T23:17:46.651Z,13.81
2023-04-20T23:20:49.030Z,13.71
2023-04-20T23:23:52.921Z,13.77
2023-04-20T23:26:55.478Z,13.79
2023-04-20T23:29:58.088Z,13.78
2023-04-20T23:33:00.464Z,13.78
2023-04-20T23:36:03.173Z,13.75
2023-04-20T23:39:05.804Z,13.71
2023-04-20T23:42:08.402Z,13.56
2023-04-20T23:45:11.265Z,13.66
2023-04-20T23:48:13.853Z,13.63
2023-04-20T23:51:16.161Z,13.61
2023-04-20T23:54:19.129Z,13.47
2023-04-20T23:57:21.481Z,13.42
